<?xml version="1.0" encoding="UTF-8" standalone="no" ?>
<gpx xmlns="http://www.topografix.com/GPX/1/1" xmlns:xsi="http://www.w3.org/2001/XMLSchema-instance" xsi:schemaLocation="http://www.topografix.com/GPX/1/1 http://www.topografix.com/GPX/1/1/gpx.xsd" version="1.1" creator="VisuGPX - https://www.visugpx.com">
  <metadata>
    <name>VacancesDricouZoe</name>
  </metadata>
  <trk>
    <name><![CDATA[Journal actif: 2021-07-07 14:21]]></name>
    <trkseg>
      <trkpt lat="43.78589" lon="-1.40256">
        <ele>-7.07</ele>
        <time>2021-07-07T16:21:30Z</time>
      </trkpt>
      <trkpt lat="43.78633" lon="-1.40284">
        <ele>-6.59</ele>
        <time>2021-07-07T16:21:40Z</time>
      </trkpt>
      <trkpt lat="43.78633" lon="-1.40284">
        <ele>-6.59</ele>
        <time>2021-07-07T16:23:08Z</time>
      </trkpt>
      <trkpt lat="43.78633" lon="-1.40284">
        <ele>-6.11</ele>
        <time>2021-07-07T16:25:45Z</time>
      </trkpt>
      <trkpt lat="43.78633" lon="-1.40284">
        <ele>-6.11</ele>
        <time>2021-07-07T16:27:44Z</time>
      </trkpt>
      <trkpt lat="43.78633" lon="-1.40284">
        <ele>-6.11</ele>
        <time>2021-07-07T16:28:57Z</time>
      </trkpt>
      <trkpt lat="43.78633" lon="-1.40284">
        <ele>-5.15</ele>
        <time>2021-07-07T16:32:05Z</time>
      </trkpt>
      <trkpt lat="43.78633" lon="-1.40284">
        <ele>-5.15</ele>
        <time>2021-07-07T16:33:51Z</time>
      </trkpt>
      <trkpt lat="43.78633" lon="-1.40284">
        <ele>-5.63</ele>
        <time>2021-07-07T16:34:49Z</time>
      </trkpt>
      <trkpt lat="43.78633" lon="-1.40284">
        <ele>-5.63</ele>
        <time>2021-07-07T16:34:50Z</time>
      </trkpt>
      <trkpt lat="43.78612" lon="-1.4028">
        <ele>-6.11</ele>
        <time>2021-07-07T16:34:51Z</time>
      </trkpt>
      <trkpt lat="43.78612" lon="-1.4028">
        <ele>-6.11</ele>
        <time>2021-07-07T16:34:52Z</time>
      </trkpt>
      <trkpt lat="43.78614" lon="-1.40282">
        <ele>-6.11</ele>
        <time>2021-07-07T16:34:53Z</time>
      </trkpt>
      <trkpt lat="43.78614" lon="-1.40282">
        <ele>-6.59</ele>
        <time>2021-07-07T16:34:54Z</time>
      </trkpt>
      <trkpt lat="43.78615" lon="-1.40284">
        <ele>-6.59</ele>
        <time>2021-07-07T16:34:55Z</time>
      </trkpt>
      <trkpt lat="43.78617" lon="-1.40286">
        <ele>-6.59</ele>
        <time>2021-07-07T16:34:56Z</time>
      </trkpt>
      <trkpt lat="43.78619" lon="-1.40288">
        <ele>-6.59</ele>
        <time>2021-07-07T16:34:57Z</time>
      </trkpt>
      <trkpt lat="43.78621" lon="-1.4029">
        <ele>-6.59</ele>
        <time>2021-07-07T16:34:58Z</time>
      </trkpt>
      <trkpt lat="43.78624" lon="-1.40295">
        <ele>-6.11</ele>
        <time>2021-07-07T16:34:59Z</time>
      </trkpt>
      <trkpt lat="43.78638" lon="-1.40339">
        <ele>-5.63</ele>
        <time>2021-07-07T16:35:13Z</time>
      </trkpt>
      <trkpt lat="43.78645" lon="-1.40412">
        <ele>-2.75</ele>
        <time>2021-07-07T16:35:26Z</time>
      </trkpt>
      <trkpt lat="43.78655" lon="-1.40485">
        <ele>-1.79</ele>
        <time>2021-07-07T16:35:41Z</time>
      </trkpt>
      <trkpt lat="43.78686" lon="-1.40479">
        <ele>-2.27</ele>
        <time>2021-07-07T16:35:52Z</time>
      </trkpt>
      <trkpt lat="43.78692" lon="-1.40478">
        <ele>-2.27</ele>
        <time>2021-07-07T16:35:56Z</time>
      </trkpt>
      <trkpt lat="43.78694" lon="-1.40478">
        <ele>-2.27</ele>
        <time>2021-07-07T16:35:57Z</time>
      </trkpt>
      <trkpt lat="43.78697" lon="-1.40473">
        <ele>-2.27</ele>
        <time>2021-07-07T16:35:58Z</time>
      </trkpt>
      <trkpt lat="43.78697" lon="-1.4047">
        <ele>-2.27</ele>
        <time>2021-07-07T16:35:59Z</time>
      </trkpt>
      <trkpt lat="43.78696" lon="-1.40467">
        <ele>-2.27</ele>
        <time>2021-07-07T16:36:00Z</time>
      </trkpt>
      <trkpt lat="43.78684" lon="-1.40381">
        <ele>-2.75</ele>
        <time>2021-07-07T16:36:11Z</time>
      </trkpt>
      <trkpt lat="43.78673" lon="-1.40263">
        <ele>-0.82</ele>
        <time>2021-07-07T16:36:25Z</time>
      </trkpt>
      <trkpt lat="43.78667" lon="-1.40223">
        <ele>1.1</ele>
        <time>2021-07-07T16:36:32Z</time>
      </trkpt>
      <trkpt lat="43.78668" lon="-1.40212">
        <ele>1.1</ele>
        <time>2021-07-07T16:36:33Z</time>
      </trkpt>
      <trkpt lat="43.78668" lon="-1.40212">
        <ele>1.1</ele>
        <time>2021-07-07T16:36:34Z</time>
      </trkpt>
      <trkpt lat="43.78672" lon="-1.40212">
        <ele>1.1</ele>
        <time>2021-07-07T16:36:35Z</time>
      </trkpt>
      <trkpt lat="43.78677" lon="-1.40211">
        <ele>1.58</ele>
        <time>2021-07-07T16:36:36Z</time>
      </trkpt>
      <trkpt lat="43.78683" lon="-1.40209">
        <ele>1.58</ele>
        <time>2021-07-07T16:36:37Z</time>
      </trkpt>
      <trkpt lat="43.78788" lon="-1.40184">
        <ele>2.54</ele>
        <time>2021-07-07T16:36:51Z</time>
      </trkpt>
      <trkpt lat="43.78794" lon="-1.40182">
        <ele>2.54</ele>
        <time>2021-07-07T16:36:52Z</time>
      </trkpt>
      <trkpt lat="43.788" lon="-1.4018">
        <ele>2.54</ele>
        <time>2021-07-07T16:36:53Z</time>
      </trkpt>
      <trkpt lat="43.78807" lon="-1.40176">
        <ele>2.54</ele>
        <time>2021-07-07T16:36:54Z</time>
      </trkpt>
      <trkpt lat="43.78811" lon="-1.40171">
        <ele>2.06</ele>
        <time>2021-07-07T16:36:55Z</time>
      </trkpt>
      <trkpt lat="43.78814" lon="-1.40164">
        <ele>2.06</ele>
        <time>2021-07-07T16:36:56Z</time>
      </trkpt>
      <trkpt lat="43.78817" lon="-1.40157">
        <ele>2.06</ele>
        <time>2021-07-07T16:36:57Z</time>
      </trkpt>
      <trkpt lat="43.78822" lon="-1.40142">
        <ele>1.1</ele>
        <time>2021-07-07T16:36:59Z</time>
      </trkpt>
      <trkpt lat="43.78822" lon="-1.40134">
        <ele>1.1</ele>
        <time>2021-07-07T16:37:00Z</time>
      </trkpt>
      <trkpt lat="43.78823" lon="-1.4013">
        <ele>1.58</ele>
        <time>2021-07-07T16:37:01Z</time>
      </trkpt>
      <trkpt lat="43.78835" lon="-1.4013">
        <ele>1.58</ele>
        <time>2021-07-07T16:37:02Z</time>
      </trkpt>
      <trkpt lat="43.78835" lon="-1.4013">
        <ele>1.58</ele>
        <time>2021-07-07T16:37:03Z</time>
      </trkpt>
      <trkpt lat="43.7885" lon="-1.40127">
        <ele>1.1</ele>
        <time>2021-07-07T16:37:04Z</time>
      </trkpt>
      <trkpt lat="43.78938" lon="-1.40109">
        <ele>1.58</ele>
        <time>2021-07-07T16:37:16Z</time>
      </trkpt>
      <trkpt lat="43.78943" lon="-1.40101">
        <ele>1.58</ele>
        <time>2021-07-07T16:37:17Z</time>
      </trkpt>
      <trkpt lat="43.78943" lon="-1.40101">
        <ele>1.58</ele>
        <time>2021-07-07T16:37:18Z</time>
      </trkpt>
      <trkpt lat="43.78946" lon="-1.40098">
        <ele>1.58</ele>
        <time>2021-07-07T16:37:19Z</time>
      </trkpt>
      <trkpt lat="43.78949" lon="-1.40093">
        <ele>1.58</ele>
        <time>2021-07-07T16:37:20Z</time>
      </trkpt>
      <trkpt lat="43.7895" lon="-1.40086">
        <ele>1.58</ele>
        <time>2021-07-07T16:37:21Z</time>
      </trkpt>
      <trkpt lat="43.78951" lon="-1.4008">
        <ele>1.58</ele>
        <time>2021-07-07T16:37:22Z</time>
      </trkpt>
      <trkpt lat="43.7895" lon="-1.40073">
        <ele>1.58</ele>
        <time>2021-07-07T16:37:23Z</time>
      </trkpt>
      <trkpt lat="43.78945" lon="-1.40046">
        <ele>1.58</ele>
        <time>2021-07-07T16:37:27Z</time>
      </trkpt>
      <trkpt lat="43.78944" lon="-1.40046">
        <ele>1.58</ele>
        <time>2021-07-07T16:37:28Z</time>
      </trkpt>
      <trkpt lat="43.7894" lon="-1.40018">
        <ele>1.58</ele>
        <time>2021-07-07T16:37:31Z</time>
      </trkpt>
      <trkpt lat="43.7892" lon="-1.39922">
        <ele>-0.34</ele>
        <time>2021-07-07T16:37:40Z</time>
      </trkpt>
      <trkpt lat="43.7887" lon="-1.39716">
        <ele>1.58</ele>
        <time>2021-07-07T16:37:55Z</time>
      </trkpt>
      <trkpt lat="43.78857" lon="-1.39674">
        <ele>2.54</ele>
        <time>2021-07-07T16:38:00Z</time>
      </trkpt>
      <trkpt lat="43.78855" lon="-1.39668">
        <ele>3.02</ele>
        <time>2021-07-07T16:38:01Z</time>
      </trkpt>
      <trkpt lat="43.78853" lon="-1.39662">
        <ele>2.54</ele>
        <time>2021-07-07T16:38:02Z</time>
      </trkpt>
      <trkpt lat="43.78844" lon="-1.39661">
        <ele>2.06</ele>
        <time>2021-07-07T16:38:04Z</time>
      </trkpt>
      <trkpt lat="43.78838" lon="-1.39658">
        <ele>2.06</ele>
        <time>2021-07-07T16:38:05Z</time>
      </trkpt>
      <trkpt lat="43.78834" lon="-1.39652">
        <ele>1.1</ele>
        <time>2021-07-07T16:38:06Z</time>
      </trkpt>
      <trkpt lat="43.78833" lon="-1.39648">
        <ele>1.58</ele>
        <time>2021-07-07T16:38:07Z</time>
      </trkpt>
      <trkpt lat="43.78833" lon="-1.39638">
        <ele>1.1</ele>
        <time>2021-07-07T16:38:08Z</time>
      </trkpt>
      <trkpt lat="43.78835" lon="-1.39632">
        <ele>0.62</ele>
        <time>2021-07-07T16:38:09Z</time>
      </trkpt>
      <trkpt lat="43.78846" lon="-1.39627">
        <ele>0.62</ele>
        <time>2021-07-07T16:38:10Z</time>
      </trkpt>
      <trkpt lat="43.78846" lon="-1.39627">
        <ele>0.14</ele>
        <time>2021-07-07T16:38:11Z</time>
      </trkpt>
      <trkpt lat="43.78846" lon="-1.39627">
        <ele>0.14</ele>
        <time>2021-07-07T16:38:12Z</time>
      </trkpt>
      <trkpt lat="43.78865" lon="-1.39616">
        <ele>0.62</ele>
        <time>2021-07-07T16:38:13Z</time>
      </trkpt>
      <trkpt lat="43.78947" lon="-1.3952">
        <ele>0.62</ele>
        <time>2021-07-07T16:38:25Z</time>
      </trkpt>
      <trkpt lat="43.78971" lon="-1.39493">
        <ele>-0.34</ele>
        <time>2021-07-07T16:38:28Z</time>
      </trkpt>
      <trkpt lat="43.79119" lon="-1.39393">
        <ele>-0.34</ele>
        <time>2021-07-07T16:38:41Z</time>
      </trkpt>
      <trkpt lat="43.79242" lon="-1.393">
        <ele>3.02</ele>
        <time>2021-07-07T16:38:53Z</time>
      </trkpt>
      <trkpt lat="43.79324" lon="-1.39232">
        <ele>2.06</ele>
        <time>2021-07-07T16:39:03Z</time>
      </trkpt>
      <trkpt lat="43.79335" lon="-1.39223">
        <ele>2.06</ele>
        <time>2021-07-07T16:39:04Z</time>
      </trkpt>
      <trkpt lat="43.79339" lon="-1.39205">
        <ele>2.06</ele>
        <time>2021-07-07T16:39:07Z</time>
      </trkpt>
      <trkpt lat="43.79343" lon="-1.39201">
        <ele>2.06</ele>
        <time>2021-07-07T16:39:08Z</time>
      </trkpt>
      <trkpt lat="43.79352" lon="-1.39203">
        <ele>2.06</ele>
        <time>2021-07-07T16:39:09Z</time>
      </trkpt>
      <trkpt lat="43.79352" lon="-1.39203">
        <ele>0.62</ele>
        <time>2021-07-07T16:39:10Z</time>
      </trkpt>
      <trkpt lat="43.79361" lon="-1.39203">
        <ele>0.62</ele>
        <time>2021-07-07T16:39:11Z</time>
      </trkpt>
      <trkpt lat="43.79367" lon="-1.39198">
        <ele>0.62</ele>
        <time>2021-07-07T16:39:12Z</time>
      </trkpt>
      <trkpt lat="43.79373" lon="-1.39193">
        <ele>1.58</ele>
        <time>2021-07-07T16:39:13Z</time>
      </trkpt>
      <trkpt lat="43.79478" lon="-1.39107">
        <ele>1.1</ele>
        <time>2021-07-07T16:39:26Z</time>
      </trkpt>
      <trkpt lat="43.79565" lon="-1.39033">
        <ele>3.5</ele>
        <time>2021-07-07T16:39:37Z</time>
      </trkpt>
      <trkpt lat="43.79571" lon="-1.39028">
        <ele>3.5</ele>
        <time>2021-07-07T16:39:38Z</time>
      </trkpt>
      <trkpt lat="43.79577" lon="-1.39022">
        <ele>3.5</ele>
        <time>2021-07-07T16:39:39Z</time>
      </trkpt>
      <trkpt lat="43.79581" lon="-1.39016">
        <ele>3.5</ele>
        <time>2021-07-07T16:39:40Z</time>
      </trkpt>
      <trkpt lat="43.79585" lon="-1.39009">
        <ele>3.5</ele>
        <time>2021-07-07T16:39:41Z</time>
      </trkpt>
      <trkpt lat="43.79592" lon="-1.39006">
        <ele>3.5</ele>
        <time>2021-07-07T16:39:42Z</time>
      </trkpt>
      <trkpt lat="43.79598" lon="-1.39004">
        <ele>3.5</ele>
        <time>2021-07-07T16:39:43Z</time>
      </trkpt>
      <trkpt lat="43.79604" lon="-1.39">
        <ele>2.54</ele>
        <time>2021-07-07T16:39:44Z</time>
      </trkpt>
      <trkpt lat="43.7961" lon="-1.38995">
        <ele>3.02</ele>
        <time>2021-07-07T16:39:45Z</time>
      </trkpt>
      <trkpt lat="43.79617" lon="-1.3899">
        <ele>3.02</ele>
        <time>2021-07-07T16:39:46Z</time>
      </trkpt>
      <trkpt lat="43.79705" lon="-1.38924">
        <ele>0.62</ele>
        <time>2021-07-07T16:39:55Z</time>
      </trkpt>
      <trkpt lat="43.79855" lon="-1.38794">
        <ele>3.02</ele>
        <time>2021-07-07T16:40:09Z</time>
      </trkpt>
      <trkpt lat="43.79862" lon="-1.38787">
        <ele>3.02</ele>
        <time>2021-07-07T16:40:10Z</time>
      </trkpt>
      <trkpt lat="43.79869" lon="-1.38782">
        <ele>3.02</ele>
        <time>2021-07-07T16:40:11Z</time>
      </trkpt>
      <trkpt lat="43.79872" lon="-1.38762">
        <ele>2.06</ele>
        <time>2021-07-07T16:40:13Z</time>
      </trkpt>
      <trkpt lat="43.79878" lon="-1.38752">
        <ele>2.06</ele>
        <time>2021-07-07T16:40:14Z</time>
      </trkpt>
      <trkpt lat="43.79884" lon="-1.3875">
        <ele>1.58</ele>
        <time>2021-07-07T16:40:15Z</time>
      </trkpt>
      <trkpt lat="43.79901" lon="-1.38752">
        <ele>1.58</ele>
        <time>2021-07-07T16:40:16Z</time>
      </trkpt>
      <trkpt lat="43.79901" lon="-1.38752">
        <ele>1.1</ele>
        <time>2021-07-07T16:40:17Z</time>
      </trkpt>
      <trkpt lat="43.79907" lon="-1.38746">
        <ele>1.1</ele>
        <time>2021-07-07T16:40:18Z</time>
      </trkpt>
      <trkpt lat="43.79914" lon="-1.38739">
        <ele>1.1</ele>
        <time>2021-07-07T16:40:19Z</time>
      </trkpt>
      <trkpt lat="43.80003" lon="-1.3865">
        <ele>4.46</ele>
        <time>2021-07-07T16:40:28Z</time>
      </trkpt>
      <trkpt lat="43.80182" lon="-1.38473">
        <ele>4.46</ele>
        <time>2021-07-07T16:40:41Z</time>
      </trkpt>
      <trkpt lat="43.80338" lon="-1.3832">
        <ele>3.5</ele>
        <time>2021-07-07T16:40:54Z</time>
      </trkpt>
      <trkpt lat="43.80573" lon="-1.38129">
        <ele>2.06</ele>
        <time>2021-07-07T16:41:09Z</time>
      </trkpt>
      <trkpt lat="43.80721" lon="-1.38011">
        <ele>2.06</ele>
        <time>2021-07-07T16:41:21Z</time>
      </trkpt>
      <trkpt lat="43.80775" lon="-1.37968">
        <ele>1.1</ele>
        <time>2021-07-07T16:41:27Z</time>
      </trkpt>
      <trkpt lat="43.80808" lon="-1.37942">
        <ele>0.62</ele>
        <time>2021-07-07T16:41:37Z</time>
      </trkpt>
      <trkpt lat="43.80897" lon="-1.37896">
        <ele>5.91</ele>
        <time>2021-07-07T16:41:46Z</time>
      </trkpt>
      <trkpt lat="43.81091" lon="-1.37842">
        <ele>10.23</ele>
        <time>2021-07-07T16:42:02Z</time>
      </trkpt>
      <trkpt lat="43.81195" lon="-1.37838">
        <ele>10.23</ele>
        <time>2021-07-07T16:42:12Z</time>
      </trkpt>
      <trkpt lat="43.81358" lon="-1.37866">
        <ele>5.42</ele>
        <time>2021-07-07T16:42:26Z</time>
      </trkpt>
      <trkpt lat="43.81448" lon="-1.37862">
        <ele>6.39</ele>
        <time>2021-07-07T16:42:35Z</time>
      </trkpt>
      <trkpt lat="43.8149" lon="-1.37847">
        <ele>10.23</ele>
        <time>2021-07-07T16:42:42Z</time>
      </trkpt>
      <trkpt lat="43.81495" lon="-1.37845">
        <ele>10.23</ele>
        <time>2021-07-07T16:42:43Z</time>
      </trkpt>
      <trkpt lat="43.81499" lon="-1.37842">
        <ele>10.71</ele>
        <time>2021-07-07T16:42:44Z</time>
      </trkpt>
      <trkpt lat="43.81502" lon="-1.37836">
        <ele>10.23</ele>
        <time>2021-07-07T16:42:45Z</time>
      </trkpt>
      <trkpt lat="43.81504" lon="-1.3782">
        <ele>10.23</ele>
        <time>2021-07-07T16:42:46Z</time>
      </trkpt>
      <trkpt lat="43.81504" lon="-1.3782">
        <ele>10.23</ele>
        <time>2021-07-07T16:42:47Z</time>
      </trkpt>
      <trkpt lat="43.815" lon="-1.37812">
        <ele>9.75</ele>
        <time>2021-07-07T16:42:48Z</time>
      </trkpt>
      <trkpt lat="43.81496" lon="-1.37803">
        <ele>9.27</ele>
        <time>2021-07-07T16:42:49Z</time>
      </trkpt>
      <trkpt lat="43.81442" lon="-1.37677">
        <ele>6.87</ele>
        <time>2021-07-07T16:42:59Z</time>
      </trkpt>
      <trkpt lat="43.81435" lon="-1.37666">
        <ele>5.91</ele>
        <time>2021-07-07T16:43:00Z</time>
      </trkpt>
      <trkpt lat="43.81429" lon="-1.37654">
        <ele>5.42</ele>
        <time>2021-07-07T16:43:01Z</time>
      </trkpt>
      <trkpt lat="43.8142" lon="-1.37646">
        <ele>4.46</ele>
        <time>2021-07-07T16:43:02Z</time>
      </trkpt>
      <trkpt lat="43.8141" lon="-1.37638">
        <ele>3.98</ele>
        <time>2021-07-07T16:43:03Z</time>
      </trkpt>
      <trkpt lat="43.81256" lon="-1.37529">
        <ele>1.58</ele>
        <time>2021-07-07T16:43:16Z</time>
      </trkpt>
      <trkpt lat="43.81248" lon="-1.37523">
        <ele>2.06</ele>
        <time>2021-07-07T16:43:17Z</time>
      </trkpt>
      <trkpt lat="43.81235" lon="-1.37519">
        <ele>2.54</ele>
        <time>2021-07-07T16:43:19Z</time>
      </trkpt>
      <trkpt lat="43.81228" lon="-1.37505">
        <ele>2.06</ele>
        <time>2021-07-07T16:43:20Z</time>
      </trkpt>
      <trkpt lat="43.81178" lon="-1.37463">
        <ele>2.06</ele>
        <time>2021-07-07T16:43:27Z</time>
      </trkpt>
      <trkpt lat="43.81146" lon="-1.37436">
        <ele>2.06</ele>
        <time>2021-07-07T16:43:30Z</time>
      </trkpt>
      <trkpt lat="43.81043" lon="-1.37311">
        <ele>2.54</ele>
        <time>2021-07-07T16:43:40Z</time>
      </trkpt>
      <trkpt lat="43.80937" lon="-1.37233">
        <ele>3.02</ele>
        <time>2021-07-07T16:43:49Z</time>
      </trkpt>
      <trkpt lat="43.80838" lon="-1.37164">
        <ele>6.39</ele>
        <time>2021-07-07T16:43:58Z</time>
      </trkpt>
      <trkpt lat="43.80714" lon="-1.37065">
        <ele>5.91</ele>
        <time>2021-07-07T16:44:08Z</time>
      </trkpt>
      <trkpt lat="43.80586" lon="-1.36949">
        <ele>4.46</ele>
        <time>2021-07-07T16:44:19Z</time>
      </trkpt>
      <trkpt lat="43.80586" lon="-1.36949">
        <ele>4.94</ele>
        <time>2021-07-07T16:44:20Z</time>
      </trkpt>
      <trkpt lat="43.8058" lon="-1.36938">
        <ele>6.87</ele>
        <time>2021-07-07T16:44:21Z</time>
      </trkpt>
      <trkpt lat="43.80566" lon="-1.36913">
        <ele>6.87</ele>
        <time>2021-07-07T16:44:22Z</time>
      </trkpt>
      <trkpt lat="43.80566" lon="-1.36913">
        <ele>7.35</ele>
        <time>2021-07-07T16:44:23Z</time>
      </trkpt>
      <trkpt lat="43.80561" lon="-1.36899">
        <ele>6.87</ele>
        <time>2021-07-07T16:44:24Z</time>
      </trkpt>
      <trkpt lat="43.80515" lon="-1.36741">
        <ele>5.42</ele>
        <time>2021-07-07T16:44:32Z</time>
      </trkpt>
      <trkpt lat="43.80459" lon="-1.36539">
        <ele>5.91</ele>
        <time>2021-07-07T16:44:41Z</time>
      </trkpt>
      <trkpt lat="43.80321" lon="-1.36219">
        <ele>11.19</ele>
        <time>2021-07-07T16:44:55Z</time>
      </trkpt>
      <trkpt lat="43.80233" lon="-1.36057">
        <ele>13.12</ele>
        <time>2021-07-07T16:45:03Z</time>
      </trkpt>
      <trkpt lat="43.80083" lon="-1.35812">
        <ele>19.36</ele>
        <time>2021-07-07T16:45:16Z</time>
      </trkpt>
      <trkpt lat="43.7998" lon="-1.35565">
        <ele>22.73</ele>
        <time>2021-07-07T16:45:27Z</time>
      </trkpt>
      <trkpt lat="43.79883" lon="-1.35272">
        <ele>26.09</ele>
        <time>2021-07-07T16:45:39Z</time>
      </trkpt>
      <trkpt lat="43.79815" lon="-1.35">
        <ele>18.4</ele>
        <time>2021-07-07T16:45:49Z</time>
      </trkpt>
      <trkpt lat="43.79767" lon="-1.34771">
        <ele>16.48</ele>
        <time>2021-07-07T16:45:58Z</time>
      </trkpt>
      <trkpt lat="43.79714" lon="-1.3443">
        <ele>23.21</ele>
        <time>2021-07-07T16:46:10Z</time>
      </trkpt>
      <trkpt lat="43.79637" lon="-1.34105">
        <ele>25.61</ele>
        <time>2021-07-07T16:46:21Z</time>
      </trkpt>
      <trkpt lat="43.79538" lon="-1.33687">
        <ele>17.92</ele>
        <time>2021-07-07T16:46:37Z</time>
      </trkpt>
      <trkpt lat="43.79503" lon="-1.3348">
        <ele>17.92</ele>
        <time>2021-07-07T16:46:46Z</time>
      </trkpt>
      <trkpt lat="43.79471" lon="-1.33171">
        <ele>17.92</ele>
        <time>2021-07-07T16:46:58Z</time>
      </trkpt>
      <trkpt lat="43.79443" lon="-1.32872">
        <ele>17.44</ele>
        <time>2021-07-07T16:47:10Z</time>
      </trkpt>
      <trkpt lat="43.79442" lon="-1.32848">
        <ele>16.96</ele>
        <time>2021-07-07T16:47:11Z</time>
      </trkpt>
      <trkpt lat="43.79442" lon="-1.32824">
        <ele>17.44</ele>
        <time>2021-07-07T16:47:12Z</time>
      </trkpt>
      <trkpt lat="43.79444" lon="-1.32801">
        <ele>17.44</ele>
        <time>2021-07-07T16:47:13Z</time>
      </trkpt>
      <trkpt lat="43.79448" lon="-1.32777">
        <ele>16.48</ele>
        <time>2021-07-07T16:47:14Z</time>
      </trkpt>
      <trkpt lat="43.79453" lon="-1.32755">
        <ele>16.48</ele>
        <time>2021-07-07T16:47:15Z</time>
      </trkpt>
      <trkpt lat="43.79459" lon="-1.32732">
        <ele>16.96</ele>
        <time>2021-07-07T16:47:16Z</time>
      </trkpt>
      <trkpt lat="43.79536" lon="-1.32483">
        <ele>14.08</ele>
        <time>2021-07-07T16:47:27Z</time>
      </trkpt>
      <trkpt lat="43.79577" lon="-1.3233">
        <ele>12.15</ele>
        <time>2021-07-07T16:47:34Z</time>
      </trkpt>
      <trkpt lat="43.79579" lon="-1.32306">
        <ele>10.71</ele>
        <time>2021-07-07T16:47:35Z</time>
      </trkpt>
      <trkpt lat="43.79588" lon="-1.32211">
        <ele>11.67</ele>
        <time>2021-07-07T16:47:39Z</time>
      </trkpt>
      <trkpt lat="43.7959" lon="-1.3219">
        <ele>12.15</ele>
        <time>2021-07-07T16:47:40Z</time>
      </trkpt>
      <trkpt lat="43.79597" lon="-1.32172">
        <ele>13.6</ele>
        <time>2021-07-07T16:47:41Z</time>
      </trkpt>
      <trkpt lat="43.79605" lon="-1.32153">
        <ele>14.08</ele>
        <time>2021-07-07T16:47:42Z</time>
      </trkpt>
      <trkpt lat="43.79612" lon="-1.32135">
        <ele>14.56</ele>
        <time>2021-07-07T16:47:43Z</time>
      </trkpt>
      <trkpt lat="43.79694" lon="-1.31957">
        <ele>17.92</ele>
        <time>2021-07-07T16:47:53Z</time>
      </trkpt>
      <trkpt lat="43.7973" lon="-1.31824">
        <ele>17.92</ele>
        <time>2021-07-07T16:48:01Z</time>
      </trkpt>
      <trkpt lat="43.79801" lon="-1.31461">
        <ele>21.29</ele>
        <time>2021-07-07T16:48:17Z</time>
      </trkpt>
      <trkpt lat="43.7986" lon="-1.31159">
        <ele>20.81</ele>
        <time>2021-07-07T16:48:29Z</time>
      </trkpt>
      <trkpt lat="43.79915" lon="-1.30876">
        <ele>23.21</ele>
        <time>2021-07-07T16:48:40Z</time>
      </trkpt>
      <trkpt lat="43.79961" lon="-1.30642">
        <ele>17.92</ele>
        <time>2021-07-07T16:48:51Z</time>
      </trkpt>
      <trkpt lat="43.79961" lon="-1.30642">
        <ele>17.92</ele>
        <time>2021-07-07T16:48:52Z</time>
      </trkpt>
      <trkpt lat="43.79957" lon="-1.3056">
        <ele>19.36</ele>
        <time>2021-07-07T16:48:58Z</time>
      </trkpt>
      <trkpt lat="43.79957" lon="-1.30553">
        <ele>18.88</ele>
        <time>2021-07-07T16:48:59Z</time>
      </trkpt>
      <trkpt lat="43.79949" lon="-1.30472">
        <ele>16.48</ele>
        <time>2021-07-07T16:49:06Z</time>
      </trkpt>
      <trkpt lat="43.79931" lon="-1.30354">
        <ele>14.56</ele>
        <time>2021-07-07T16:49:15Z</time>
      </trkpt>
      <trkpt lat="43.7991" lon="-1.3028">
        <ele>19.36</ele>
        <time>2021-07-07T16:49:26Z</time>
      </trkpt>
      <trkpt lat="43.79902" lon="-1.30266">
        <ele>18.88</ele>
        <time>2021-07-07T16:49:29Z</time>
      </trkpt>
      <trkpt lat="43.79902" lon="-1.30266">
        <ele>18.4</ele>
        <time>2021-07-07T16:49:30Z</time>
      </trkpt>
      <trkpt lat="43.79894" lon="-1.30262">
        <ele>18.4</ele>
        <time>2021-07-07T16:49:31Z</time>
      </trkpt>
      <trkpt lat="43.79888" lon="-1.30259">
        <ele>17.92</ele>
        <time>2021-07-07T16:49:32Z</time>
      </trkpt>
      <trkpt lat="43.79881" lon="-1.30256">
        <ele>17.92</ele>
        <time>2021-07-07T16:49:33Z</time>
      </trkpt>
      <trkpt lat="43.79874" lon="-1.30253">
        <ele>17.92</ele>
        <time>2021-07-07T16:49:34Z</time>
      </trkpt>
      <trkpt lat="43.79848" lon="-1.30246">
        <ele>17.92</ele>
        <time>2021-07-07T16:49:38Z</time>
      </trkpt>
      <trkpt lat="43.79837" lon="-1.3024">
        <ele>17.44</ele>
        <time>2021-07-07T16:49:39Z</time>
      </trkpt>
      <trkpt lat="43.79834" lon="-1.30237">
        <ele>17.44</ele>
        <time>2021-07-07T16:49:40Z</time>
      </trkpt>
      <trkpt lat="43.79828" lon="-1.30231">
        <ele>16.96</ele>
        <time>2021-07-07T16:49:41Z</time>
      </trkpt>
      <trkpt lat="43.79821" lon="-1.30224">
        <ele>16.96</ele>
        <time>2021-07-07T16:49:42Z</time>
      </trkpt>
      <trkpt lat="43.79733" lon="-1.30128">
        <ele>16</ele>
        <time>2021-07-07T16:49:53Z</time>
      </trkpt>
      <trkpt lat="43.79666" lon="-1.30012">
        <ele>16.96</ele>
        <time>2021-07-07T16:50:05Z</time>
      </trkpt>
      <trkpt lat="43.79597" lon="-1.29857">
        <ele>15.52</ele>
        <time>2021-07-07T16:50:19Z</time>
      </trkpt>
      <trkpt lat="43.79522" lon="-1.29738">
        <ele>13.6</ele>
        <time>2021-07-07T16:50:28Z</time>
      </trkpt>
      <trkpt lat="43.79522" lon="-1.29738">
        <ele>13.6</ele>
        <time>2021-07-07T16:50:29Z</time>
      </trkpt>
      <trkpt lat="43.79492" lon="-1.29709">
        <ele>12.15</ele>
        <time>2021-07-07T16:50:33Z</time>
      </trkpt>
      <trkpt lat="43.79483" lon="-1.29704">
        <ele>11.19</ele>
        <time>2021-07-07T16:50:34Z</time>
      </trkpt>
      <trkpt lat="43.79473" lon="-1.297">
        <ele>10.23</ele>
        <time>2021-07-07T16:50:35Z</time>
      </trkpt>
      <trkpt lat="43.79462" lon="-1.297">
        <ele>10.71</ele>
        <time>2021-07-07T16:50:36Z</time>
      </trkpt>
      <trkpt lat="43.79451" lon="-1.29699">
        <ele>12.63</ele>
        <time>2021-07-07T16:50:37Z</time>
      </trkpt>
      <trkpt lat="43.79428" lon="-1.29697">
        <ele>14.08</ele>
        <time>2021-07-07T16:50:38Z</time>
      </trkpt>
      <trkpt lat="43.79293" lon="-1.29691">
        <ele>16</ele>
        <time>2021-07-07T16:50:49Z</time>
      </trkpt>
      <trkpt lat="43.79286" lon="-1.2969">
        <ele>16.48</ele>
        <time>2021-07-07T16:50:50Z</time>
      </trkpt>
      <trkpt lat="43.79279" lon="-1.2969">
        <ele>15.04</ele>
        <time>2021-07-07T16:50:51Z</time>
      </trkpt>
      <trkpt lat="43.79277" lon="-1.29684">
        <ele>15.04</ele>
        <time>2021-07-07T16:50:52Z</time>
      </trkpt>
      <trkpt lat="43.79277" lon="-1.29684">
        <ele>14.08</ele>
        <time>2021-07-07T16:50:53Z</time>
      </trkpt>
      <trkpt lat="43.79275" lon="-1.29676">
        <ele>14.08</ele>
        <time>2021-07-07T16:50:54Z</time>
      </trkpt>
      <trkpt lat="43.79262" lon="-1.29634">
        <ele>12.63</ele>
        <time>2021-07-07T16:50:57Z</time>
      </trkpt>
      <trkpt lat="43.79238" lon="-1.29518">
        <ele>10.71</ele>
        <time>2021-07-07T16:51:05Z</time>
      </trkpt>
      <trkpt lat="43.79227" lon="-1.29483">
        <ele>12.15</ele>
        <time>2021-07-07T16:51:07Z</time>
      </trkpt>
      <trkpt lat="43.79222" lon="-1.29466">
        <ele>12.63</ele>
        <time>2021-07-07T16:51:08Z</time>
      </trkpt>
      <trkpt lat="43.79219" lon="-1.29448">
        <ele>12.63</ele>
        <time>2021-07-07T16:51:09Z</time>
      </trkpt>
      <trkpt lat="43.7921" lon="-1.29393">
        <ele>14.56</ele>
        <time>2021-07-07T16:51:12Z</time>
      </trkpt>
      <trkpt lat="43.79207" lon="-1.29375">
        <ele>15.04</ele>
        <time>2021-07-07T16:51:13Z</time>
      </trkpt>
      <trkpt lat="43.79144" lon="-1.29188">
        <ele>16.96</ele>
        <time>2021-07-07T16:51:24Z</time>
      </trkpt>
      <trkpt lat="43.79055" lon="-1.28879">
        <ele>17.44</ele>
        <time>2021-07-07T16:51:39Z</time>
      </trkpt>
      <trkpt lat="43.78957" lon="-1.28592">
        <ele>17.44</ele>
        <time>2021-07-07T16:51:52Z</time>
      </trkpt>
      <trkpt lat="43.7884" lon="-1.28256">
        <ele>16.48</ele>
        <time>2021-07-07T16:52:06Z</time>
      </trkpt>
      <trkpt lat="43.78706" lon="-1.2788">
        <ele>16.96</ele>
        <time>2021-07-07T16:52:22Z</time>
      </trkpt>
      <trkpt lat="43.78643" lon="-1.27726">
        <ele>17.44</ele>
        <time>2021-07-07T16:52:29Z</time>
      </trkpt>
      <trkpt lat="43.78639" lon="-1.27704">
        <ele>16.96</ele>
        <time>2021-07-07T16:52:30Z</time>
      </trkpt>
      <trkpt lat="43.78631" lon="-1.27661">
        <ele>16.96</ele>
        <time>2021-07-07T16:52:31Z</time>
      </trkpt>
      <trkpt lat="43.78631" lon="-1.27661">
        <ele>17.92</ele>
        <time>2021-07-07T16:52:32Z</time>
      </trkpt>
      <trkpt lat="43.78629" lon="-1.27639">
        <ele>17.92</ele>
        <time>2021-07-07T16:52:33Z</time>
      </trkpt>
      <trkpt lat="43.78636" lon="-1.27532">
        <ele>17.44</ele>
        <time>2021-07-07T16:52:38Z</time>
      </trkpt>
      <trkpt lat="43.78664" lon="-1.27369">
        <ele>19.36</ele>
        <time>2021-07-07T16:52:46Z</time>
      </trkpt>
      <trkpt lat="43.78662" lon="-1.27073">
        <ele>17.92</ele>
        <time>2021-07-07T16:53:00Z</time>
      </trkpt>
      <trkpt lat="43.78624" lon="-1.26886">
        <ele>13.6</ele>
        <time>2021-07-07T16:53:09Z</time>
      </trkpt>
      <trkpt lat="43.78563" lon="-1.26669">
        <ele>14.56</ele>
        <time>2021-07-07T16:53:20Z</time>
      </trkpt>
      <trkpt lat="43.7856" lon="-1.26648">
        <ele>14.56</ele>
        <time>2021-07-07T16:53:21Z</time>
      </trkpt>
      <trkpt lat="43.78556" lon="-1.26629">
        <ele>15.52</ele>
        <time>2021-07-07T16:53:22Z</time>
      </trkpt>
      <trkpt lat="43.78556" lon="-1.2661">
        <ele>16</ele>
        <time>2021-07-07T16:53:23Z</time>
      </trkpt>
      <trkpt lat="43.78558" lon="-1.26571">
        <ele>16</ele>
        <time>2021-07-07T16:53:24Z</time>
      </trkpt>
      <trkpt lat="43.78558" lon="-1.26571">
        <ele>16</ele>
        <time>2021-07-07T16:53:25Z</time>
      </trkpt>
      <trkpt lat="43.78563" lon="-1.2655">
        <ele>16</ele>
        <time>2021-07-07T16:53:26Z</time>
      </trkpt>
      <trkpt lat="43.78567" lon="-1.2653">
        <ele>16</ele>
        <time>2021-07-07T16:53:27Z</time>
      </trkpt>
      <trkpt lat="43.78576" lon="-1.26488">
        <ele>16</ele>
        <time>2021-07-07T16:53:28Z</time>
      </trkpt>
      <trkpt lat="43.78651" lon="-1.26243">
        <ele>16.96</ele>
        <time>2021-07-07T16:53:40Z</time>
      </trkpt>
      <trkpt lat="43.78736" lon="-1.25961">
        <ele>19.36</ele>
        <time>2021-07-07T16:53:53Z</time>
      </trkpt>
      <trkpt lat="43.78742" lon="-1.25919">
        <ele>18.4</ele>
        <time>2021-07-07T16:53:54Z</time>
      </trkpt>
      <trkpt lat="43.78742" lon="-1.25919">
        <ele>18.88</ele>
        <time>2021-07-07T16:53:55Z</time>
      </trkpt>
      <trkpt lat="43.78742" lon="-1.25899">
        <ele>19.36</ele>
        <time>2021-07-07T16:53:56Z</time>
      </trkpt>
      <trkpt lat="43.78739" lon="-1.25852">
        <ele>19.36</ele>
        <time>2021-07-07T16:53:57Z</time>
      </trkpt>
      <trkpt lat="43.7872" lon="-1.25646">
        <ele>20.81</ele>
        <time>2021-07-07T16:54:07Z</time>
      </trkpt>
      <trkpt lat="43.78721" lon="-1.25623">
        <ele>20.32</ele>
        <time>2021-07-07T16:54:08Z</time>
      </trkpt>
      <trkpt lat="43.78746" lon="-1.2536">
        <ele>20.81</ele>
        <time>2021-07-07T16:54:19Z</time>
      </trkpt>
      <trkpt lat="43.78754" lon="-1.24994">
        <ele>26.57</ele>
        <time>2021-07-07T16:54:34Z</time>
      </trkpt>
      <trkpt lat="43.78732" lon="-1.24781">
        <ele>28.02</ele>
        <time>2021-07-07T16:54:43Z</time>
      </trkpt>
      <trkpt lat="43.78734" lon="-1.24378">
        <ele>27.05</ele>
        <time>2021-07-07T16:54:58Z</time>
      </trkpt>
      <trkpt lat="43.78735" lon="-1.24023">
        <ele>25.13</ele>
        <time>2021-07-07T16:55:12Z</time>
      </trkpt>
      <trkpt lat="43.78738" lon="-1.23582">
        <ele>23.69</ele>
        <time>2021-07-07T16:55:30Z</time>
      </trkpt>
      <trkpt lat="43.78736" lon="-1.2354">
        <ele>22.73</ele>
        <time>2021-07-07T16:55:32Z</time>
      </trkpt>
      <trkpt lat="43.78734" lon="-1.23519">
        <ele>20.81</ele>
        <time>2021-07-07T16:55:33Z</time>
      </trkpt>
      <trkpt lat="43.78731" lon="-1.23499">
        <ele>19.36</ele>
        <time>2021-07-07T16:55:34Z</time>
      </trkpt>
      <trkpt lat="43.78725" lon="-1.23479">
        <ele>18.88</ele>
        <time>2021-07-07T16:55:35Z</time>
      </trkpt>
      <trkpt lat="43.78709" lon="-1.23441">
        <ele>17.92</ele>
        <time>2021-07-07T16:55:36Z</time>
      </trkpt>
      <trkpt lat="43.78709" lon="-1.23441">
        <ele>16.96</ele>
        <time>2021-07-07T16:55:37Z</time>
      </trkpt>
      <trkpt lat="43.78571" lon="-1.23207">
        <ele>21.77</ele>
        <time>2021-07-07T16:55:50Z</time>
      </trkpt>
      <trkpt lat="43.78396" lon="-1.22929">
        <ele>21.29</ele>
        <time>2021-07-07T16:56:05Z</time>
      </trkpt>
      <trkpt lat="43.78328" lon="-1.2277">
        <ele>21.29</ele>
        <time>2021-07-07T16:56:13Z</time>
      </trkpt>
      <trkpt lat="43.78279" lon="-1.22623">
        <ele>22.25</ele>
        <time>2021-07-07T16:56:21Z</time>
      </trkpt>
      <trkpt lat="43.78259" lon="-1.22558">
        <ele>23.69</ele>
        <time>2021-07-07T16:56:28Z</time>
      </trkpt>
      <trkpt lat="43.78251" lon="-1.22547">
        <ele>23.21</ele>
        <time>2021-07-07T16:56:35Z</time>
      </trkpt>
      <trkpt lat="43.78251" lon="-1.22547">
        <ele>22.73</ele>
        <time>2021-07-07T16:56:36Z</time>
      </trkpt>
      <trkpt lat="43.78176" lon="-1.22517">
        <ele>16.96</ele>
        <time>2021-07-07T16:56:46Z</time>
      </trkpt>
      <trkpt lat="43.78104" lon="-1.22475">
        <ele>14.56</ele>
        <time>2021-07-07T16:56:56Z</time>
      </trkpt>
      <trkpt lat="43.78098" lon="-1.22468">
        <ele>14.56</ele>
        <time>2021-07-07T16:56:57Z</time>
      </trkpt>
      <trkpt lat="43.78092" lon="-1.22461">
        <ele>15.52</ele>
        <time>2021-07-07T16:56:58Z</time>
      </trkpt>
      <trkpt lat="43.78086" lon="-1.2245">
        <ele>16</ele>
        <time>2021-07-07T16:56:59Z</time>
      </trkpt>
      <trkpt lat="43.78083" lon="-1.22439">
        <ele>16.96</ele>
        <time>2021-07-07T16:57:00Z</time>
      </trkpt>
      <trkpt lat="43.7808" lon="-1.22428">
        <ele>17.92</ele>
        <time>2021-07-07T16:57:01Z</time>
      </trkpt>
      <trkpt lat="43.78076" lon="-1.22417">
        <ele>18.88</ele>
        <time>2021-07-07T16:57:02Z</time>
      </trkpt>
      <trkpt lat="43.78075" lon="-1.22391">
        <ele>19.36</ele>
        <time>2021-07-07T16:57:03Z</time>
      </trkpt>
      <trkpt lat="43.78075" lon="-1.22391">
        <ele>19.84</ele>
        <time>2021-07-07T16:57:04Z</time>
      </trkpt>
      <trkpt lat="43.78088" lon="-1.22197">
        <ele>22.73</ele>
        <time>2021-07-07T16:57:17Z</time>
      </trkpt>
      <trkpt lat="43.78116" lon="-1.22032">
        <ele>24.65</ele>
        <time>2021-07-07T16:57:27Z</time>
      </trkpt>
      <trkpt lat="43.78119" lon="-1.21911">
        <ele>26.09</ele>
        <time>2021-07-07T16:57:36Z</time>
      </trkpt>
      <trkpt lat="43.78103" lon="-1.21796">
        <ele>27.05</ele>
        <time>2021-07-07T16:57:48Z</time>
      </trkpt>
      <trkpt lat="43.78093" lon="-1.2174">
        <ele>28.5</ele>
        <time>2021-07-07T16:57:56Z</time>
      </trkpt>
      <trkpt lat="43.78084" lon="-1.21709">
        <ele>28.98</ele>
        <time>2021-07-07T16:58:30Z</time>
      </trkpt>
      <trkpt lat="43.78066" lon="-1.21648">
        <ele>28.5</ele>
        <time>2021-07-07T16:58:39Z</time>
      </trkpt>
      <trkpt lat="43.78064" lon="-1.21641">
        <ele>28.02</ele>
        <time>2021-07-07T16:58:40Z</time>
      </trkpt>
      <trkpt lat="43.78063" lon="-1.21635">
        <ele>28.5</ele>
        <time>2021-07-07T16:58:41Z</time>
      </trkpt>
      <trkpt lat="43.78059" lon="-1.21634">
        <ele>28.5</ele>
        <time>2021-07-07T16:58:42Z</time>
      </trkpt>
      <trkpt lat="43.78054" lon="-1.21633">
        <ele>28.5</ele>
        <time>2021-07-07T16:58:43Z</time>
      </trkpt>
      <trkpt lat="43.78049" lon="-1.21632">
        <ele>28.5</ele>
        <time>2021-07-07T16:58:44Z</time>
      </trkpt>
      <trkpt lat="43.77951" lon="-1.21614">
        <ele>26.57</ele>
        <time>2021-07-07T16:59:00Z</time>
      </trkpt>
      <trkpt lat="43.77912" lon="-1.21605">
        <ele>25.13</ele>
        <time>2021-07-07T16:59:06Z</time>
      </trkpt>
      <trkpt lat="43.77912" lon="-1.21605">
        <ele>25.61</ele>
        <time>2021-07-07T16:59:07Z</time>
      </trkpt>
      <trkpt lat="43.77909" lon="-1.21603">
        <ele>25.13</ele>
        <time>2021-07-07T16:59:08Z</time>
      </trkpt>
      <trkpt lat="43.77905" lon="-1.21599">
        <ele>25.13</ele>
        <time>2021-07-07T16:59:09Z</time>
      </trkpt>
      <trkpt lat="43.77902" lon="-1.21594">
        <ele>25.13</ele>
        <time>2021-07-07T16:59:10Z</time>
      </trkpt>
      <trkpt lat="43.77901" lon="-1.21588">
        <ele>25.61</ele>
        <time>2021-07-07T16:59:11Z</time>
      </trkpt>
      <trkpt lat="43.77896" lon="-1.21462">
        <ele>25.13</ele>
        <time>2021-07-07T16:59:21Z</time>
      </trkpt>
      <trkpt lat="43.77878" lon="-1.21324">
        <ele>23.69</ele>
        <time>2021-07-07T16:59:30Z</time>
      </trkpt>
      <trkpt lat="43.77873" lon="-1.21314">
        <ele>23.69</ele>
        <time>2021-07-07T16:59:31Z</time>
      </trkpt>
      <trkpt lat="43.77869" lon="-1.21305">
        <ele>23.69</ele>
        <time>2021-07-07T16:59:32Z</time>
      </trkpt>
      <trkpt lat="43.77866" lon="-1.21297">
        <ele>23.21</ele>
        <time>2021-07-07T16:59:33Z</time>
      </trkpt>
      <trkpt lat="43.7785" lon="-1.21276">
        <ele>23.69</ele>
        <time>2021-07-07T16:59:35Z</time>
      </trkpt>
      <trkpt lat="43.77849" lon="-1.21267">
        <ele>23.69</ele>
        <time>2021-07-07T16:59:36Z</time>
      </trkpt>
      <trkpt lat="43.77849" lon="-1.21267">
        <ele>23.69</ele>
        <time>2021-07-07T16:59:37Z</time>
      </trkpt>
      <trkpt lat="43.77849" lon="-1.21257">
        <ele>23.69</ele>
        <time>2021-07-07T16:59:38Z</time>
      </trkpt>
      <trkpt lat="43.7785" lon="-1.21246">
        <ele>23.21</ele>
        <time>2021-07-07T16:59:39Z</time>
      </trkpt>
      <trkpt lat="43.7785" lon="-1.21222">
        <ele>23.21</ele>
        <time>2021-07-07T16:59:40Z</time>
      </trkpt>
      <trkpt lat="43.7785" lon="-1.21222">
        <ele>22.73</ele>
        <time>2021-07-07T16:59:41Z</time>
      </trkpt>
      <trkpt lat="43.77831" lon="-1.21093">
        <ele>23.21</ele>
        <time>2021-07-07T16:59:50Z</time>
      </trkpt>
      <trkpt lat="43.7782" lon="-1.21051">
        <ele>24.17</ele>
        <time>2021-07-07T16:59:53Z</time>
      </trkpt>
      <trkpt lat="43.77816" lon="-1.21038">
        <ele>24.17</ele>
        <time>2021-07-07T16:59:54Z</time>
      </trkpt>
      <trkpt lat="43.77811" lon="-1.21028">
        <ele>24.65</ele>
        <time>2021-07-07T16:59:55Z</time>
      </trkpt>
      <trkpt lat="43.77806" lon="-1.21018">
        <ele>24.65</ele>
        <time>2021-07-07T16:59:56Z</time>
      </trkpt>
      <trkpt lat="43.77801" lon="-1.21009">
        <ele>24.17</ele>
        <time>2021-07-07T16:59:57Z</time>
      </trkpt>
      <trkpt lat="43.77795" lon="-1.21001">
        <ele>24.17</ele>
        <time>2021-07-07T16:59:58Z</time>
      </trkpt>
      <trkpt lat="43.77789" lon="-1.20996">
        <ele>23.69</ele>
        <time>2021-07-07T16:59:59Z</time>
      </trkpt>
      <trkpt lat="43.77781" lon="-1.20993">
        <ele>24.17</ele>
        <time>2021-07-07T17:00:00Z</time>
      </trkpt>
      <trkpt lat="43.77773" lon="-1.20992">
        <ele>23.69</ele>
        <time>2021-07-07T17:00:01Z</time>
      </trkpt>
      <trkpt lat="43.77765" lon="-1.2099">
        <ele>23.69</ele>
        <time>2021-07-07T17:00:02Z</time>
      </trkpt>
      <trkpt lat="43.77745" lon="-1.20995">
        <ele>26.09</ele>
        <time>2021-07-07T17:00:04Z</time>
      </trkpt>
      <trkpt lat="43.77735" lon="-1.21">
        <ele>27.53</ele>
        <time>2021-07-07T17:00:05Z</time>
      </trkpt>
      <trkpt lat="43.77725" lon="-1.21005">
        <ele>28.5</ele>
        <time>2021-07-07T17:00:06Z</time>
      </trkpt>
      <trkpt lat="43.77709" lon="-1.21024">
        <ele>28.98</ele>
        <time>2021-07-07T17:00:07Z</time>
      </trkpt>
      <trkpt lat="43.77702" lon="-1.21034">
        <ele>27.05</ele>
        <time>2021-07-07T17:00:08Z</time>
      </trkpt>
      <trkpt lat="43.77699" lon="-1.21052">
        <ele>25.61</ele>
        <time>2021-07-07T17:00:09Z</time>
      </trkpt>
      <trkpt lat="43.77699" lon="-1.21052">
        <ele>24.65</ele>
        <time>2021-07-07T17:00:10Z</time>
      </trkpt>
      <trkpt lat="43.77699" lon="-1.21067">
        <ele>25.13</ele>
        <time>2021-07-07T17:00:11Z</time>
      </trkpt>
      <trkpt lat="43.77698" lon="-1.21082">
        <ele>26.09</ele>
        <time>2021-07-07T17:00:12Z</time>
      </trkpt>
      <trkpt lat="43.77701" lon="-1.21098">
        <ele>26.09</ele>
        <time>2021-07-07T17:00:13Z</time>
      </trkpt>
      <trkpt lat="43.77705" lon="-1.21111">
        <ele>25.13</ele>
        <time>2021-07-07T17:00:14Z</time>
      </trkpt>
      <trkpt lat="43.77711" lon="-1.21124">
        <ele>24.65</ele>
        <time>2021-07-07T17:00:15Z</time>
      </trkpt>
      <trkpt lat="43.77718" lon="-1.21136">
        <ele>26.09</ele>
        <time>2021-07-07T17:00:16Z</time>
      </trkpt>
      <trkpt lat="43.77728" lon="-1.21144">
        <ele>27.53</ele>
        <time>2021-07-07T17:00:17Z</time>
      </trkpt>
      <trkpt lat="43.7774" lon="-1.2115">
        <ele>27.53</ele>
        <time>2021-07-07T17:00:18Z</time>
      </trkpt>
      <trkpt lat="43.77764" lon="-1.21154">
        <ele>28.02</ele>
        <time>2021-07-07T17:00:19Z</time>
      </trkpt>
      <trkpt lat="43.77777" lon="-1.2115">
        <ele>27.53</ele>
        <time>2021-07-07T17:00:20Z</time>
      </trkpt>
      <trkpt lat="43.77777" lon="-1.2115">
        <ele>26.57</ele>
        <time>2021-07-07T17:00:21Z</time>
      </trkpt>
      <trkpt lat="43.77791" lon="-1.21146">
        <ele>25.61</ele>
        <time>2021-07-07T17:00:22Z</time>
      </trkpt>
      <trkpt lat="43.77806" lon="-1.21142">
        <ele>25.13</ele>
        <time>2021-07-07T17:00:23Z</time>
      </trkpt>
      <trkpt lat="43.77951" lon="-1.21083">
        <ele>23.69</ele>
        <time>2021-07-07T17:00:31Z</time>
      </trkpt>
      <trkpt lat="43.78184" lon="-1.20996">
        <ele>20.81</ele>
        <time>2021-07-07T17:00:41Z</time>
      </trkpt>
      <trkpt lat="43.78472" lon="-1.20914">
        <ele>25.13</ele>
        <time>2021-07-07T17:00:52Z</time>
      </trkpt>
      <trkpt lat="43.78736" lon="-1.20912">
        <ele>28.98</ele>
        <time>2021-07-07T17:01:02Z</time>
      </trkpt>
      <trkpt lat="43.79076" lon="-1.20911">
        <ele>31.86</ele>
        <time>2021-07-07T17:01:15Z</time>
      </trkpt>
      <trkpt lat="43.79308" lon="-1.20841">
        <ele>35.71</ele>
        <time>2021-07-07T17:01:24Z</time>
      </trkpt>
      <trkpt lat="43.79576" lon="-1.20676">
        <ele>38.59</ele>
        <time>2021-07-07T17:01:35Z</time>
      </trkpt>
      <trkpt lat="43.80068" lon="-1.20346">
        <ele>43.88</ele>
        <time>2021-07-07T17:01:55Z</time>
      </trkpt>
      <trkpt lat="43.80431" lon="-1.20097">
        <ele>47.72</ele>
        <time>2021-07-07T17:02:10Z</time>
      </trkpt>
      <trkpt lat="43.80944" lon="-1.19751">
        <ele>53.01</ele>
        <time>2021-07-07T17:02:31Z</time>
      </trkpt>
      <trkpt lat="43.81489" lon="-1.19384">
        <ele>57.82</ele>
        <time>2021-07-07T17:02:53Z</time>
      </trkpt>
      <trkpt lat="43.82023" lon="-1.1903">
        <ele>60.22</ele>
        <time>2021-07-07T17:03:14Z</time>
      </trkpt>
      <trkpt lat="43.82512" lon="-1.18698">
        <ele>62.62</ele>
        <time>2021-07-07T17:03:34Z</time>
      </trkpt>
      <trkpt lat="43.82873" lon="-1.18453">
        <ele>64.55</ele>
        <time>2021-07-07T17:03:50Z</time>
      </trkpt>
      <trkpt lat="43.83209" lon="-1.18224">
        <ele>64.55</ele>
        <time>2021-07-07T17:04:06Z</time>
      </trkpt>
      <trkpt lat="43.83398" lon="-1.18095">
        <ele>65.51</ele>
        <time>2021-07-07T17:04:16Z</time>
      </trkpt>
      <trkpt lat="43.83483" lon="-1.1804">
        <ele>66.47</ele>
        <time>2021-07-07T17:04:24Z</time>
      </trkpt>
      <trkpt lat="43.83512" lon="-1.18022">
        <ele>66.47</ele>
        <time>2021-07-07T17:04:31Z</time>
      </trkpt>
      <trkpt lat="43.83548" lon="-1.18001">
        <ele>65.99</ele>
        <time>2021-07-07T17:04:38Z</time>
      </trkpt>
      <trkpt lat="43.83646" lon="-1.17935">
        <ele>65.51</ele>
        <time>2021-07-07T17:04:45Z</time>
      </trkpt>
      <trkpt lat="43.83783" lon="-1.17843">
        <ele>63.1</ele>
        <time>2021-07-07T17:04:54Z</time>
      </trkpt>
      <trkpt lat="43.84026" lon="-1.17677">
        <ele>64.55</ele>
        <time>2021-07-07T17:05:06Z</time>
      </trkpt>
      <trkpt lat="43.84332" lon="-1.17469">
        <ele>66.47</ele>
        <time>2021-07-07T17:05:19Z</time>
      </trkpt>
      <trkpt lat="43.84844" lon="-1.17126">
        <ele>66.95</ele>
        <time>2021-07-07T17:05:39Z</time>
      </trkpt>
      <trkpt lat="43.85424" lon="-1.16734">
        <ele>68.39</ele>
        <time>2021-07-07T17:06:01Z</time>
      </trkpt>
      <trkpt lat="43.85947" lon="-1.16375">
        <ele>67.91</ele>
        <time>2021-07-07T17:06:21Z</time>
      </trkpt>
      <trkpt lat="43.86415" lon="-1.16034">
        <ele>65.99</ele>
        <time>2021-07-07T17:06:40Z</time>
      </trkpt>
      <trkpt lat="43.86593" lon="-1.15852">
        <ele>65.99</ele>
        <time>2021-07-07T17:06:48Z</time>
      </trkpt>
      <trkpt lat="43.8676" lon="-1.15587">
        <ele>66.47</ele>
        <time>2021-07-07T17:06:57Z</time>
      </trkpt>
      <trkpt lat="43.86868" lon="-1.15316">
        <ele>64.55</ele>
        <time>2021-07-07T17:07:05Z</time>
      </trkpt>
      <trkpt lat="43.86936" lon="-1.14979">
        <ele>63.1</ele>
        <time>2021-07-07T17:07:14Z</time>
      </trkpt>
      <trkpt lat="43.87023" lon="-1.14347">
        <ele>63.58</ele>
        <time>2021-07-07T17:07:31Z</time>
      </trkpt>
      <trkpt lat="43.87089" lon="-1.14033">
        <ele>64.07</ele>
        <time>2021-07-07T17:07:41Z</time>
      </trkpt>
      <trkpt lat="43.87142" lon="-1.13834">
        <ele>61.18</ele>
        <time>2021-07-07T17:07:49Z</time>
      </trkpt>
      <trkpt lat="43.87149" lon="-1.13797">
        <ele>62.14</ele>
        <time>2021-07-07T17:07:51Z</time>
      </trkpt>
      <trkpt lat="43.87153" lon="-1.1376">
        <ele>61.66</ele>
        <time>2021-07-07T17:07:52Z</time>
      </trkpt>
      <trkpt lat="43.87154" lon="-1.13742">
        <ele>61.66</ele>
        <time>2021-07-07T17:07:53Z</time>
      </trkpt>
      <trkpt lat="43.87154" lon="-1.13742">
        <ele>61.18</ele>
        <time>2021-07-07T17:07:54Z</time>
      </trkpt>
      <trkpt lat="43.87152" lon="-1.13723">
        <ele>60.7</ele>
        <time>2021-07-07T17:07:55Z</time>
      </trkpt>
      <trkpt lat="43.87149" lon="-1.13704">
        <ele>60.7</ele>
        <time>2021-07-07T17:07:56Z</time>
      </trkpt>
      <trkpt lat="43.87146" lon="-1.13686">
        <ele>60.7</ele>
        <time>2021-07-07T17:07:57Z</time>
      </trkpt>
      <trkpt lat="43.87141" lon="-1.13668">
        <ele>60.7</ele>
        <time>2021-07-07T17:07:58Z</time>
      </trkpt>
      <trkpt lat="43.87136" lon="-1.1365">
        <ele>61.18</ele>
        <time>2021-07-07T17:07:59Z</time>
      </trkpt>
      <trkpt lat="43.87084" lon="-1.13521">
        <ele>58.78</ele>
        <time>2021-07-07T17:08:07Z</time>
      </trkpt>
      <trkpt lat="43.8708" lon="-1.13506">
        <ele>58.78</ele>
        <time>2021-07-07T17:08:08Z</time>
      </trkpt>
      <trkpt lat="43.87079" lon="-1.13491">
        <ele>59.74</ele>
        <time>2021-07-07T17:08:09Z</time>
      </trkpt>
      <trkpt lat="43.87075" lon="-1.13443">
        <ele>60.7</ele>
        <time>2021-07-07T17:08:13Z</time>
      </trkpt>
      <trkpt lat="43.87073" lon="-1.13436">
        <ele>60.7</ele>
        <time>2021-07-07T17:08:14Z</time>
      </trkpt>
      <trkpt lat="43.87071" lon="-1.1343">
        <ele>60.22</ele>
        <time>2021-07-07T17:08:23Z</time>
      </trkpt>
      <trkpt lat="43.87057" lon="-1.13411">
        <ele>60.22</ele>
        <time>2021-07-07T17:08:37Z</time>
      </trkpt>
      <trkpt lat="43.87054" lon="-1.13405">
        <ele>60.22</ele>
        <time>2021-07-07T17:08:38Z</time>
      </trkpt>
      <trkpt lat="43.87051" lon="-1.13398">
        <ele>60.22</ele>
        <time>2021-07-07T17:08:39Z</time>
      </trkpt>
      <trkpt lat="43.87051" lon="-1.13398">
        <ele>60.22</ele>
        <time>2021-07-07T17:08:40Z</time>
      </trkpt>
      <trkpt lat="43.87049" lon="-1.13389">
        <ele>60.22</ele>
        <time>2021-07-07T17:08:41Z</time>
      </trkpt>
      <trkpt lat="43.8705" lon="-1.13381">
        <ele>60.22</ele>
        <time>2021-07-07T17:08:42Z</time>
      </trkpt>
      <trkpt lat="43.8705" lon="-1.13373">
        <ele>60.22</ele>
        <time>2021-07-07T17:08:43Z</time>
      </trkpt>
      <trkpt lat="43.87053" lon="-1.13363">
        <ele>60.22</ele>
        <time>2021-07-07T17:08:44Z</time>
      </trkpt>
      <trkpt lat="43.87065" lon="-1.13351">
        <ele>60.22</ele>
        <time>2021-07-07T17:08:45Z</time>
      </trkpt>
      <trkpt lat="43.87065" lon="-1.13351">
        <ele>60.22</ele>
        <time>2021-07-07T17:08:46Z</time>
      </trkpt>
      <trkpt lat="43.87072" lon="-1.13346">
        <ele>60.22</ele>
        <time>2021-07-07T17:08:47Z</time>
      </trkpt>
      <trkpt lat="43.87078" lon="-1.13339">
        <ele>60.22</ele>
        <time>2021-07-07T17:08:48Z</time>
      </trkpt>
      <trkpt lat="43.87083" lon="-1.13331">
        <ele>60.22</ele>
        <time>2021-07-07T17:08:49Z</time>
      </trkpt>
      <trkpt lat="43.87088" lon="-1.1332">
        <ele>60.22</ele>
        <time>2021-07-07T17:08:50Z</time>
      </trkpt>
      <trkpt lat="43.87092" lon="-1.13309">
        <ele>59.74</ele>
        <time>2021-07-07T17:08:51Z</time>
      </trkpt>
      <trkpt lat="43.87152" lon="-1.1318">
        <ele>58.3</ele>
        <time>2021-07-07T17:09:01Z</time>
      </trkpt>
      <trkpt lat="43.87161" lon="-1.13168">
        <ele>57.82</ele>
        <time>2021-07-07T17:09:02Z</time>
      </trkpt>
      <trkpt lat="43.87171" lon="-1.13159">
        <ele>56.86</ele>
        <time>2021-07-07T17:09:03Z</time>
      </trkpt>
      <trkpt lat="43.8719" lon="-1.13147">
        <ele>56.86</ele>
        <time>2021-07-07T17:09:04Z</time>
      </trkpt>
      <trkpt lat="43.872" lon="-1.13143">
        <ele>56.86</ele>
        <time>2021-07-07T17:09:05Z</time>
      </trkpt>
      <trkpt lat="43.872" lon="-1.13143">
        <ele>56.37</ele>
        <time>2021-07-07T17:09:06Z</time>
      </trkpt>
      <trkpt lat="43.87209" lon="-1.13139">
        <ele>55.89</ele>
        <time>2021-07-07T17:09:08Z</time>
      </trkpt>
      <trkpt lat="43.87236" lon="-1.13125">
        <ele>54.93</ele>
        <time>2021-07-07T17:09:09Z</time>
      </trkpt>
      <trkpt lat="43.87241" lon="-1.13115">
        <ele>56.37</ele>
        <time>2021-07-07T17:09:11Z</time>
      </trkpt>
      <trkpt lat="43.87252" lon="-1.1311">
        <ele>55.41</ele>
        <time>2021-07-07T17:09:12Z</time>
      </trkpt>
      <trkpt lat="43.87264" lon="-1.13119">
        <ele>54.93</ele>
        <time>2021-07-07T17:09:13Z</time>
      </trkpt>
      <trkpt lat="43.87264" lon="-1.13119">
        <ele>54.93</ele>
        <time>2021-07-07T17:09:14Z</time>
      </trkpt>
      <trkpt lat="43.87278" lon="-1.13128">
        <ele>55.41</ele>
        <time>2021-07-07T17:09:15Z</time>
      </trkpt>
      <trkpt lat="43.87278" lon="-1.13128">
        <ele>55.41</ele>
        <time>2021-07-07T17:09:16Z</time>
      </trkpt>
      <trkpt lat="43.87286" lon="-1.13131">
        <ele>55.41</ele>
        <time>2021-07-07T17:09:17Z</time>
      </trkpt>
      <trkpt lat="43.87295" lon="-1.13134">
        <ele>55.41</ele>
        <time>2021-07-07T17:09:18Z</time>
      </trkpt>
      <trkpt lat="43.87391" lon="-1.13139">
        <ele>53.49</ele>
        <time>2021-07-07T17:09:26Z</time>
      </trkpt>
      <trkpt lat="43.87535" lon="-1.13118">
        <ele>47.24</ele>
        <time>2021-07-07T17:09:35Z</time>
      </trkpt>
      <trkpt lat="43.87719" lon="-1.13038">
        <ele>48.68</ele>
        <time>2021-07-07T17:09:46Z</time>
      </trkpt>
      <trkpt lat="43.87947" lon="-1.12944">
        <ele>49.65</ele>
        <time>2021-07-07T17:09:59Z</time>
      </trkpt>
      <trkpt lat="43.88078" lon="-1.12924">
        <ele>54.93</ele>
        <time>2021-07-07T17:10:07Z</time>
      </trkpt>
      <trkpt lat="43.88132" lon="-1.12915">
        <ele>56.37</ele>
        <time>2021-07-07T17:10:13Z</time>
      </trkpt>
      <trkpt lat="43.88146" lon="-1.12913">
        <ele>56.37</ele>
        <time>2021-07-07T17:10:18Z</time>
      </trkpt>
      <trkpt lat="43.88148" lon="-1.12912">
        <ele>56.37</ele>
        <time>2021-07-07T17:10:19Z</time>
      </trkpt>
      <trkpt lat="43.88148" lon="-1.12915">
        <ele>56.86</ele>
        <time>2021-07-07T17:10:20Z</time>
      </trkpt>
      <trkpt lat="43.8815" lon="-1.12928">
        <ele>56.86</ele>
        <time>2021-07-07T17:10:21Z</time>
      </trkpt>
      <trkpt lat="43.8815" lon="-1.12928">
        <ele>56.86</ele>
        <time>2021-07-07T17:10:22Z</time>
      </trkpt>
      <trkpt lat="43.88151" lon="-1.12935">
        <ele>56.86</ele>
        <time>2021-07-07T17:10:23Z</time>
      </trkpt>
      <trkpt lat="43.8816" lon="-1.12987">
        <ele>57.82</ele>
        <time>2021-07-07T17:10:29Z</time>
      </trkpt>
      <trkpt lat="43.88163" lon="-1.13006">
        <ele>58.3</ele>
        <time>2021-07-07T17:10:30Z</time>
      </trkpt>
      <trkpt lat="43.88164" lon="-1.13014">
        <ele>57.82</ele>
        <time>2021-07-07T17:10:31Z</time>
      </trkpt>
      <trkpt lat="43.88177" lon="-1.13026">
        <ele>57.82</ele>
        <time>2021-07-07T17:10:32Z</time>
      </trkpt>
      <trkpt lat="43.88222" lon="-1.13064">
        <ele>54.45</ele>
        <time>2021-07-07T17:10:39Z</time>
      </trkpt>
      <trkpt lat="43.88273" lon="-1.13083">
        <ele>46.76</ele>
        <time>2021-07-07T17:10:46Z</time>
      </trkpt>
      <trkpt lat="43.88282" lon="-1.13086">
        <ele>45.8</ele>
        <time>2021-07-07T17:10:47Z</time>
      </trkpt>
      <trkpt lat="43.88323" lon="-1.13089">
        <ele>41.95</ele>
        <time>2021-07-07T17:10:51Z</time>
      </trkpt>
      <trkpt lat="43.88344" lon="-1.13092">
        <ele>42.44</ele>
        <time>2021-07-07T17:10:52Z</time>
      </trkpt>
      <trkpt lat="43.88354" lon="-1.13097">
        <ele>43.4</ele>
        <time>2021-07-07T17:10:53Z</time>
      </trkpt>
      <trkpt lat="43.88471" lon="-1.13151">
        <ele>53.01</ele>
        <time>2021-07-07T17:11:04Z</time>
      </trkpt>
      <trkpt lat="43.88579" lon="-1.13202">
        <ele>50.61</ele>
        <time>2021-07-07T17:11:14Z</time>
      </trkpt>
      <trkpt lat="43.88606" lon="-1.13214">
        <ele>54.45</ele>
        <time>2021-07-07T17:11:22Z</time>
      </trkpt>
      <trkpt lat="43.88609" lon="-1.13216">
        <ele>54.45</ele>
        <time>2021-07-07T17:11:27Z</time>
      </trkpt>
      <trkpt lat="43.88621" lon="-1.13178">
        <ele>54.93</ele>
        <time>2021-07-07T17:11:30Z</time>
      </trkpt>
      <trkpt lat="43.88634" lon="-1.13175">
        <ele>53.49</ele>
        <time>2021-07-07T17:11:34Z</time>
      </trkpt>
      <trkpt lat="43.88673" lon="-1.13207">
        <ele>53.01</ele>
        <time>2021-07-07T17:11:47Z</time>
      </trkpt>
      <trkpt lat="43.88676" lon="-1.13233">
        <ele>52.53</ele>
        <time>2021-07-07T17:11:55Z</time>
      </trkpt>
      <trkpt lat="43.88671" lon="-1.13236">
        <ele>52.53</ele>
        <time>2021-07-07T17:11:56Z</time>
      </trkpt>
      <trkpt lat="43.88671" lon="-1.13236">
        <ele>52.05</ele>
        <time>2021-07-07T17:11:57Z</time>
      </trkpt>
      <trkpt lat="43.88667" lon="-1.13238">
        <ele>52.05</ele>
        <time>2021-07-07T17:11:58Z</time>
      </trkpt>
      <trkpt lat="43.88658" lon="-1.13239">
        <ele>51.57</ele>
        <time>2021-07-07T17:11:59Z</time>
      </trkpt>
      <trkpt lat="43.88658" lon="-1.13239">
        <ele>51.57</ele>
        <time>2021-07-07T17:12:00Z</time>
      </trkpt>
      <trkpt lat="43.88603" lon="-1.13213">
        <ele>53.49</ele>
        <time>2021-07-07T17:12:09Z</time>
      </trkpt>
      <trkpt lat="43.88601" lon="-1.13212">
        <ele>54.45</ele>
        <time>2021-07-07T17:12:10Z</time>
      </trkpt>
      <trkpt lat="43.88601" lon="-1.13212">
        <ele>54.45</ele>
        <time>2021-07-07T17:12:11Z</time>
      </trkpt>
      <trkpt lat="43.88599" lon="-1.13211">
        <ele>54.45</ele>
        <time>2021-07-07T17:12:13Z</time>
      </trkpt>
      <trkpt lat="43.88599" lon="-1.13211">
        <ele>54.45</ele>
        <time>2021-07-07T17:12:14Z</time>
      </trkpt>
      <trkpt lat="43.8861" lon="-1.13216">
        <ele>54.45</ele>
        <time>2021-07-07T17:12:20Z</time>
      </trkpt>
      <trkpt lat="43.88613" lon="-1.13218">
        <ele>53.97</ele>
        <time>2021-07-07T17:12:21Z</time>
      </trkpt>
      <trkpt lat="43.88617" lon="-1.1322">
        <ele>53.97</ele>
        <time>2021-07-07T17:12:22Z</time>
      </trkpt>
      <trkpt lat="43.88626" lon="-1.13223">
        <ele>53.49</ele>
        <time>2021-07-07T17:12:23Z</time>
      </trkpt>
      <trkpt lat="43.88626" lon="-1.13223">
        <ele>53.49</ele>
        <time>2021-07-07T17:12:24Z</time>
      </trkpt>
      <trkpt lat="43.88651" lon="-1.13235">
        <ele>53.01</ele>
        <time>2021-07-07T17:12:32Z</time>
      </trkpt>
      <trkpt lat="43.88653" lon="-1.13236">
        <ele>52.53</ele>
        <time>2021-07-07T17:12:33Z</time>
      </trkpt>
      <trkpt lat="43.88655" lon="-1.13237">
        <ele>52.53</ele>
        <time>2021-07-07T17:12:34Z</time>
      </trkpt>
      <trkpt lat="43.88657" lon="-1.13238">
        <ele>53.49</ele>
        <time>2021-07-07T17:12:48Z</time>
      </trkpt>
      <trkpt lat="43.88657" lon="-1.13238">
        <ele>52.05</ele>
        <time>2021-07-07T17:32:04Z</time>
      </trkpt>
      <trkpt lat="43.88657" lon="-1.13238">
        <ele>51.57</ele>
        <time>2021-07-07T17:38:10Z</time>
      </trkpt>
      <trkpt lat="43.88674" lon="-1.13232">
        <ele>51.57</ele>
        <time>2021-07-07T17:38:23Z</time>
      </trkpt>
      <trkpt lat="43.88648" lon="-1.13234">
        <ele>51.57</ele>
        <time>2021-07-07T17:38:32Z</time>
      </trkpt>
      <trkpt lat="43.88591" lon="-1.13207">
        <ele>52.05</ele>
        <time>2021-07-07T17:38:49Z</time>
      </trkpt>
      <trkpt lat="43.88527" lon="-1.13177">
        <ele>50.61</ele>
        <time>2021-07-07T17:39:00Z</time>
      </trkpt>
      <trkpt lat="43.88415" lon="-1.13125">
        <ele>48.2</ele>
        <time>2021-07-07T17:39:15Z</time>
      </trkpt>
      <trkpt lat="43.88339" lon="-1.1309">
        <ele>43.4</ele>
        <time>2021-07-07T17:39:23Z</time>
      </trkpt>
      <trkpt lat="43.88332" lon="-1.1309">
        <ele>42.92</ele>
        <time>2021-07-07T17:39:24Z</time>
      </trkpt>
      <trkpt lat="43.88324" lon="-1.13089">
        <ele>42.92</ele>
        <time>2021-07-07T17:39:25Z</time>
      </trkpt>
      <trkpt lat="43.88315" lon="-1.13089">
        <ele>44.84</ele>
        <time>2021-07-07T17:39:26Z</time>
      </trkpt>
      <trkpt lat="43.88306" lon="-1.13088">
        <ele>45.8</ele>
        <time>2021-07-07T17:39:27Z</time>
      </trkpt>
      <trkpt lat="43.88297" lon="-1.13087">
        <ele>46.76</ele>
        <time>2021-07-07T17:39:28Z</time>
      </trkpt>
      <trkpt lat="43.88288" lon="-1.13087">
        <ele>47.72</ele>
        <time>2021-07-07T17:39:29Z</time>
      </trkpt>
      <trkpt lat="43.8828" lon="-1.13085">
        <ele>49.16</ele>
        <time>2021-07-07T17:39:30Z</time>
      </trkpt>
      <trkpt lat="43.88272" lon="-1.13082">
        <ele>50.13</ele>
        <time>2021-07-07T17:39:31Z</time>
      </trkpt>
      <trkpt lat="43.88265" lon="-1.1308">
        <ele>50.61</ele>
        <time>2021-07-07T17:39:32Z</time>
      </trkpt>
      <trkpt lat="43.88215" lon="-1.13059">
        <ele>55.41</ele>
        <time>2021-07-07T17:39:39Z</time>
      </trkpt>
      <trkpt lat="43.88208" lon="-1.13054">
        <ele>55.89</ele>
        <time>2021-07-07T17:39:40Z</time>
      </trkpt>
      <trkpt lat="43.88203" lon="-1.1305">
        <ele>56.37</ele>
        <time>2021-07-07T17:39:41Z</time>
      </trkpt>
      <trkpt lat="43.88197" lon="-1.13046">
        <ele>56.86</ele>
        <time>2021-07-07T17:39:42Z</time>
      </trkpt>
      <trkpt lat="43.88191" lon="-1.13042">
        <ele>56.86</ele>
        <time>2021-07-07T17:39:43Z</time>
      </trkpt>
      <trkpt lat="43.88165" lon="-1.13018">
        <ele>54.93</ele>
        <time>2021-07-07T17:39:52Z</time>
      </trkpt>
      <trkpt lat="43.88164" lon="-1.13012">
        <ele>54.93</ele>
        <time>2021-07-07T17:39:53Z</time>
      </trkpt>
      <trkpt lat="43.88163" lon="-1.13008">
        <ele>54.93</ele>
        <time>2021-07-07T17:39:54Z</time>
      </trkpt>
      <trkpt lat="43.88162" lon="-1.13002">
        <ele>54.93</ele>
        <time>2021-07-07T17:39:55Z</time>
      </trkpt>
      <trkpt lat="43.88149" lon="-1.1292">
        <ele>54.93</ele>
        <time>2021-07-07T17:40:04Z</time>
      </trkpt>
      <trkpt lat="43.88131" lon="-1.12806">
        <ele>53.97</ele>
        <time>2021-07-07T17:40:14Z</time>
      </trkpt>
      <trkpt lat="43.88118" lon="-1.12719">
        <ele>57.34</ele>
        <time>2021-07-07T17:40:20Z</time>
      </trkpt>
      <trkpt lat="43.88116" lon="-1.12711">
        <ele>57.82</ele>
        <time>2021-07-07T17:40:21Z</time>
      </trkpt>
      <trkpt lat="43.88115" lon="-1.12704">
        <ele>57.34</ele>
        <time>2021-07-07T17:40:22Z</time>
      </trkpt>
      <trkpt lat="43.88114" lon="-1.12699">
        <ele>56.37</ele>
        <time>2021-07-07T17:40:23Z</time>
      </trkpt>
      <trkpt lat="43.88108" lon="-1.12695">
        <ele>56.37</ele>
        <time>2021-07-07T17:40:24Z</time>
      </trkpt>
      <trkpt lat="43.88103" lon="-1.12696">
        <ele>55.89</ele>
        <time>2021-07-07T17:40:25Z</time>
      </trkpt>
      <trkpt lat="43.88099" lon="-1.12697">
        <ele>55.89</ele>
        <time>2021-07-07T17:40:26Z</time>
      </trkpt>
      <trkpt lat="43.88088" lon="-1.12699">
        <ele>56.86</ele>
        <time>2021-07-07T17:40:29Z</time>
      </trkpt>
      <trkpt lat="43.88085" lon="-1.127">
        <ele>57.34</ele>
        <time>2021-07-07T17:40:30Z</time>
      </trkpt>
      <trkpt lat="43.88083" lon="-1.127">
        <ele>57.34</ele>
        <time>2021-07-07T17:40:31Z</time>
      </trkpt>
      <trkpt lat="43.88084" lon="-1.127">
        <ele>57.82</ele>
        <time>2021-07-07T17:40:33Z</time>
      </trkpt>
      <trkpt lat="43.88086" lon="-1.127">
        <ele>58.3</ele>
        <time>2021-07-07T17:40:34Z</time>
      </trkpt>
      <trkpt lat="43.88089" lon="-1.12699">
        <ele>58.3</ele>
        <time>2021-07-07T17:40:35Z</time>
      </trkpt>
      <trkpt lat="43.88091" lon="-1.12699">
        <ele>58.3</ele>
        <time>2021-07-07T17:40:36Z</time>
      </trkpt>
      <trkpt lat="43.88094" lon="-1.12698">
        <ele>58.3</ele>
        <time>2021-07-07T17:40:37Z</time>
      </trkpt>
      <trkpt lat="43.88096" lon="-1.12698">
        <ele>57.82</ele>
        <time>2021-07-07T17:40:38Z</time>
      </trkpt>
      <trkpt lat="43.88098" lon="-1.12697">
        <ele>57.82</ele>
        <time>2021-07-07T17:40:39Z</time>
      </trkpt>
      <trkpt lat="43.88101" lon="-1.12696">
        <ele>57.82</ele>
        <time>2021-07-07T17:40:40Z</time>
      </trkpt>
      <trkpt lat="43.88103" lon="-1.12696">
        <ele>57.82</ele>
        <time>2021-07-07T17:40:41Z</time>
      </trkpt>
      <trkpt lat="43.88106" lon="-1.12695">
        <ele>57.82</ele>
        <time>2021-07-07T17:40:42Z</time>
      </trkpt>
      <trkpt lat="43.88112" lon="-1.12694">
        <ele>58.78</ele>
        <time>2021-07-07T17:40:55Z</time>
      </trkpt>
      <trkpt lat="43.88114" lon="-1.12697">
        <ele>59.26</ele>
        <time>2021-07-07T17:40:56Z</time>
      </trkpt>
      <trkpt lat="43.88114" lon="-1.12697">
        <ele>59.74</ele>
        <time>2021-07-07T17:40:58Z</time>
      </trkpt>
      <trkpt lat="43.88129" lon="-1.12792">
        <ele>61.66</ele>
        <time>2021-07-07T17:41:07Z</time>
      </trkpt>
      <trkpt lat="43.88146" lon="-1.12904">
        <ele>62.62</ele>
        <time>2021-07-07T17:41:16Z</time>
      </trkpt>
      <trkpt lat="43.88148" lon="-1.12917">
        <ele>61.66</ele>
        <time>2021-07-07T17:41:20Z</time>
      </trkpt>
      <trkpt lat="43.88149" lon="-1.12919">
        <ele>61.18</ele>
        <time>2021-07-07T17:41:21Z</time>
      </trkpt>
      <trkpt lat="43.88144" lon="-1.12913">
        <ele>60.7</ele>
        <time>2021-07-07T17:41:22Z</time>
      </trkpt>
      <trkpt lat="43.88141" lon="-1.12914">
        <ele>60.7</ele>
        <time>2021-07-07T17:41:23Z</time>
      </trkpt>
      <trkpt lat="43.88136" lon="-1.12915">
        <ele>60.7</ele>
        <time>2021-07-07T17:41:24Z</time>
      </trkpt>
      <trkpt lat="43.8813" lon="-1.12916">
        <ele>60.7</ele>
        <time>2021-07-07T17:41:25Z</time>
      </trkpt>
      <trkpt lat="43.88063" lon="-1.12931">
        <ele>58.78</ele>
        <time>2021-07-07T17:41:34Z</time>
      </trkpt>
      <trkpt lat="43.88058" lon="-1.12934">
        <ele>58.3</ele>
        <time>2021-07-07T17:41:35Z</time>
      </trkpt>
      <trkpt lat="43.88056" lon="-1.12938">
        <ele>57.82</ele>
        <time>2021-07-07T17:41:36Z</time>
      </trkpt>
      <trkpt lat="43.8805" lon="-1.12952">
        <ele>57.34</ele>
        <time>2021-07-07T17:41:37Z</time>
      </trkpt>
      <trkpt lat="43.8805" lon="-1.12952">
        <ele>56.86</ele>
        <time>2021-07-07T17:41:38Z</time>
      </trkpt>
      <trkpt lat="43.88048" lon="-1.12959">
        <ele>56.37</ele>
        <time>2021-07-07T17:41:39Z</time>
      </trkpt>
      <trkpt lat="43.88044" lon="-1.12976">
        <ele>55.89</ele>
        <time>2021-07-07T17:41:40Z</time>
      </trkpt>
      <trkpt lat="43.88044" lon="-1.12976">
        <ele>55.41</ele>
        <time>2021-07-07T17:41:41Z</time>
      </trkpt>
      <trkpt lat="43.88043" lon="-1.12994">
        <ele>53.97</ele>
        <time>2021-07-07T17:41:43Z</time>
      </trkpt>
      <trkpt lat="43.88043" lon="-1.13004">
        <ele>53.97</ele>
        <time>2021-07-07T17:41:44Z</time>
      </trkpt>
      <trkpt lat="43.88043" lon="-1.13012">
        <ele>53.97</ele>
        <time>2021-07-07T17:41:45Z</time>
      </trkpt>
      <trkpt lat="43.88046" lon="-1.13021">
        <ele>53.97</ele>
        <time>2021-07-07T17:41:46Z</time>
      </trkpt>
      <trkpt lat="43.88049" lon="-1.13031">
        <ele>53.49</ele>
        <time>2021-07-07T17:41:47Z</time>
      </trkpt>
      <trkpt lat="43.88053" lon="-1.13041">
        <ele>52.53</ele>
        <time>2021-07-07T17:41:48Z</time>
      </trkpt>
      <trkpt lat="43.88059" lon="-1.13046">
        <ele>51.57</ele>
        <time>2021-07-07T17:41:49Z</time>
      </trkpt>
      <trkpt lat="43.88068" lon="-1.13053">
        <ele>50.61</ele>
        <time>2021-07-07T17:41:50Z</time>
      </trkpt>
      <trkpt lat="43.88078" lon="-1.13062">
        <ele>49.65</ele>
        <time>2021-07-07T17:41:51Z</time>
      </trkpt>
      <trkpt lat="43.88088" lon="-1.1307">
        <ele>49.65</ele>
        <time>2021-07-07T17:41:52Z</time>
      </trkpt>
      <trkpt lat="43.881" lon="-1.13076">
        <ele>49.16</ele>
        <time>2021-07-07T17:41:53Z</time>
      </trkpt>
      <trkpt lat="43.88114" lon="-1.13079">
        <ele>50.13</ele>
        <time>2021-07-07T17:41:54Z</time>
      </trkpt>
      <trkpt lat="43.88253" lon="-1.13111">
        <ele>48.68</ele>
        <time>2021-07-07T17:42:03Z</time>
      </trkpt>
      <trkpt lat="43.88444" lon="-1.1317">
        <ele>45.8</ele>
        <time>2021-07-07T17:42:13Z</time>
      </trkpt>
    </trkseg>
  </trk>
</gpx>